Ferry Kyoto II — JI3701 — position and weather

sailwx.info

Track history (hours):
 
Tides and Currents Weather Stations Pressure Air Temp Water Temp Dewpoint Dewpoint Depression Visibility Wind Speed Wind Dir Waves Ship Positions

Ferry Kyoto II

Last reported at 2017-Feb-23 08:34 UTC. Time now 2017-Feb-23 09:31 UTC.
Position N 34°36' E 135°18'.

Length 167 m; draft 5.9 m.

Type: Ship. MMSI: 431301641.

Date/timePositionNaut miles runAvg speedWind from/ knotsBaromVisibWave heightAir tempDewpointWater temp
2017-Feb-23 08:34N 34°36' E 135°18'7 6.0
2017-Feb-23 07:28N 34°37' E 135°26'0 0.0
2017-Feb-23 06:16N 34°37' E 135°26'0 0.0
2017-Feb-23 05:28N 34°37' E 135°26'0 0.0
2017-Feb-23 04:28N 34°37' E 135°26'0 0.0
2017-Feb-23 03:22N 34°37' E 135°26'0 0.0
2017-Feb-23 02:22N 34°37' E 135°26'0 0.0
2017-Feb-23 01:16N 34°37' E 135°26'0 0.0
2017-Feb-23 00:28N 34°37' E 135°26'0 0.0
2017-Feb-22 23:16N 34°37' E 135°26'0 0.0
2017-Feb-22 22:22N 34°37' E 135°26'0 0.0
2017-Feb-22 21:22N 34°37' E 135°26'0 0.0
2017-Feb-22 20:26N 34°37' E 135°26'1112.1
2017-Feb-22 19:33N 34°35' E 135°13'1818.6
2017-Feb-22 18:33N 34°34' E 134°51'11318.8
2017-Feb-22 12:33N 33°56' E 132°42'2222.4
2017-Feb-22 11:33N 33°43' E 132°20'10 0.5
2017-Feb-21 17:16N 33°42' E 132°08'1521.4
2017-Feb-21 16:33N 33°47' E 132°25'2221.4
2017-Feb-21 15:33N 34°01' E 132°45'11318.8
2017-Feb-21 09:33N 34°36' E 134°55'2120.6
2017-Feb-21 08:33N 34°37' E 135°20'5 5.0
2017-Feb-21 07:32N 34°37' E 135°26'0 0.0
2017-Feb-21 06:32N 34°37' E 135°26'0 0.0
2017-Feb-21 05:26N 34°37' E 135°26'0 0.0
2017-Feb-21 04:32N 34°37' E 135°26'0 0.0
2017-Feb-21 03:14N 34°37' E 135°26'0 0.0
2017-Feb-21 02:32N 34°37' E 135°26'0 0.0
2017-Feb-21 01:32N 34°37' E 135°26'0 0.0
2017-Feb-21 00:26N 34°37' E 135°26'0 0.0
2017-Feb-20 23:32N 34°37' E 135°26'0 0.0
2017-Feb-20 22:32N 34°37' E 135°26'0 0.0
2017-Feb-20 21:20N 34°37' E 135°26'0 0.0
2017-Feb-20 20:33N 34°37' E 135°26'1312.9
2017-Feb-20 19:33N 34°35' E 135°10'2120.1
2017-Feb-20 18:30N 34°32' E 134°45'10617.9
2017-Feb-20 12:33N 33°58' E 132°43'2121.0
2017-Feb-20 11:34N 33°45' E 132°23'15 0.8
2017-Feb-19 17:17N 33°43' E 132°05'1621.3
2017-Feb-19 16:33N 33°46' E 132°23'2221.5
2017-Feb-19 15:33N 33°59' E 132°44'11218.7
2017-Feb-19 09:33N 34°35' E 134°52'2020.3
2017-Feb-19 08:33N 34°37' E 135°17'8 7.0
2017-Feb-19 07:28N 34°37' E 135°26'0 0.0
2017-Feb-19 06:28N 34°37' E 135°26'0 0.0
2017-Feb-19 05:28N 34°37' E 135°26'0 0.0
2017-Feb-19 04:28N 34°37' E 135°26'0 0.0
2017-Feb-19 03:22N 34°37' E 135°26'0 0.0
2017-Feb-19 02:28N 34°37' E 135°26'0 0.0
2017-Feb-19 01:28N 34°37' E 135°26'0 0.0
2017-Feb-19 00:28N 34°37' E 135°26'0 0.0
2017-Feb-18 23:28N 34°37' E 135°26'0 0.0
2017-Feb-18 22:28N 34°37' E 135°26'0 0.0
2017-Feb-18 21:28N 34°37' E 135°26'0 0.0
2017-Feb-18 20:33N 34°37' E 135°26'1111.4
2017-Feb-18 19:33N 34°35' E 135°12'1918.8
2017-Feb-18 18:33N 34°33' E 134°50'10818.1
2017-Feb-18 12:33N 33°60' E 132°45'2221.7
2017-Feb-18 11:33N 33°46' E 132°24'17 0.9
2017-Feb-17 17:33N 33°46' E 132°04'2121.5
2017-Feb-17 16:33N 33°52' E 132°29'13218.8
2017-Feb-17 09:33N 34°37' E 134°58'2019.8
2017-Feb-17 08:33N 34°38' E 135°22'3 2.9
2017-Feb-17 07:31N 34°37' E 135°26'0 0.0
2017-Feb-17 06:31N 34°37' E 135°26'0 0.0
2017-Feb-17 05:31N 34°37' E 135°26'0 0.0
2017-Feb-17 04:31N 34°37' E 135°26'0 0.0
2017-Feb-17 03:31N 34°37' E 135°26'0 0.0
2017-Feb-17 02:31N 34°37' E 135°26'0 0.0
2017-Feb-17 01:25N 34°37' E 135°26'0 0.0
2017-Feb-17 00:31N 34°37' E 135°26'0 0.0
2017-Feb-16 23:31N 34°37' E 135°26'0 0.0
2017-Feb-16 22:25N 34°37' E 135°26'0 0.0
2017-Feb-16 21:31N 34°37' E 135°26'0 0.0
2017-Feb-16 20:31N 34°37' E 135°26'1010.2
2017-Feb-16 19:33N 34°35' E 135°14'1616.1
2017-Feb-16 18:33N 34°35' E 134°55'11419.0
2017-Feb-16 12:34N 33°58' E 132°44'2322.6
2017-Feb-16 11:33N 33°45' E 132°22'6720.7
2017-Feb-16 08:19N 33°53' E 131°01'2 1.7
2017-Feb-16 07:05N 33°52' E 130°59'0 0.0
2017-Feb-16 06:32N 33°52' E 130°59'0 0.0
2017-Feb-16 05:32N 33°52' E 130°59'52 4.3
2017-Feb-15 17:26N 33°45' E 132°01'1922.0
2017-Feb-15 16:33N 33°51' E 132°23'2120.9
2017-Feb-15 15:33N 34°01' E 132°45'11218.7
2017-Feb-15 09:33N 34°36' E 134°54'2019.8
2017-Feb-15 08:33N 34°37' E 135°18'6 5.4
2017-Feb-15 07:23N 34°37' E 135°26'0 0.0
2017-Feb-15 06:29N 34°37' E 135°26'0 0.0
2017-Feb-15 05:29N 34°37' E 135°26'0 0.0
2017-Feb-15 04:29N 34°37' E 135°26'0 0.0
2017-Feb-15 03:29N 34°37' E 135°26'0 0.0
2017-Feb-15 02:29N 34°37' E 135°26'3 2.7
2017-Feb-15 01:33N 34°38' E 135°23'1616.2
2017-Feb-15 00:33N 34°36' E 135°03'12718.2
2017-Feb-14 17:33N 33°54' E 132°38'2221.9
2017-Feb-14 16:33N 33°43' E 132°15'9 0.4
2017-Feb-13 17:15N 33°42' E 132°04'1419.9
2017-Feb-13 16:33N 33°45' E 132°20'2020.3
2017-Feb-13 15:33N 33°56' E 132°41'11619.2
2017-Feb-13 09:30N 34°35' E 134°53'  
Track history (hours):
 
Tides and Currents Weather Stations Pressure Air Temp Water Temp Dewpoint Dewpoint Depression Visibility Wind Speed Wind Dir Waves Ship Positions

Ferry Kyoto II

Last reported at 2017-Feb-23 08:34 UTC. Time now 2017-Feb-23 09:31 UTC.
Position N 34°36' E 135°18'.

Length 167 m; draft 5.9 m.

Type: Ship. MMSI: 431301641.

Date/timePositionNaut miles runAvg speedWind from/ knotsBaromVisibWave heightAir tempDewpointWater temp
2017-Feb-23 08:34N 34°36' E 135°18'7 6.0
2017-Feb-23 07:28N 34°37' E 135°26'0 0.0
2017-Feb-23 06:16N 34°37' E 135°26'0 0.0
2017-Feb-23 05:28N 34°37' E 135°26'0 0.0
2017-Feb-23 04:28N 34°37' E 135°26'0 0.0
2017-Feb-23 03:22N 34°37' E 135°26'0 0.0
2017-Feb-23 02:22N 34°37' E 135°26'0 0.0
2017-Feb-23 01:16N 34°37' E 135°26'0 0.0
2017-Feb-23 00:28N 34°37' E 135°26'0 0.0
2017-Feb-22 23:16N 34°37' E 135°26'0 0.0
2017-Feb-22 22:22N 34°37' E 135°26'0 0.0
2017-Feb-22 21:22N 34°37' E 135°26'0 0.0
2017-Feb-22 20:26N 34°37' E 135°26'1112.1
2017-Feb-22 19:33N 34°35' E 135°13'1818.6
2017-Feb-22 18:33N 34°34' E 134°51'11318.8
2017-Feb-22 12:33N 33°56' E 132°42'2222.4
2017-Feb-22 11:33N 33°43' E 132°20'10 0.5
2017-Feb-21 17:16N 33°42' E 132°08'1521.4
2017-Feb-21 16:33N 33°47' E 132°25'2221.4
2017-Feb-21 15:33N 34°01' E 132°45'11318.8
2017-Feb-21 09:33N 34°36' E 134°55'2120.6
2017-Feb-21 08:33N 34°37' E 135°20'5 5.0
2017-Feb-21 07:32N 34°37' E 135°26'0 0.0
2017-Feb-21 06:32N 34°37' E 135°26'0 0.0
2017-Feb-21 05:26N 34°37' E 135°26'0 0.0
2017-Feb-21 04:32N 34°37' E 135°26'0 0.0
2017-Feb-21 03:14N 34°37' E 135°26'0 0.0
2017-Feb-21 02:32N 34°37' E 135°26'0 0.0
2017-Feb-21 01:32N 34°37' E 135°26'0 0.0
2017-Feb-21 00:26N 34°37' E 135°26'0 0.0
2017-Feb-20 23:32N 34°37' E 135°26'0 0.0
2017-Feb-20 22:32N 34°37' E 135°26'0 0.0
2017-Feb-20 21:20N 34°37' E 135°26'0 0.0
2017-Feb-20 20:33N 34°37' E 135°26'1312.9
2017-Feb-20 19:33N 34°35' E 135°10'2120.1
2017-Feb-20 18:30N 34°32' E 134°45'10617.9
2017-Feb-20 12:33N 33°58' E 132°43'2121.0
2017-Feb-20 11:34N 33°45' E 132°23'15 0.8
2017-Feb-19 17:17N 33°43' E 132°05'1621.3
2017-Feb-19 16:33N 33°46' E 132°23'2221.5
2017-Feb-19 15:33N 33°59' E 132°44'11218.7
2017-Feb-19 09:33N 34°35' E 134°52'2020.3
2017-Feb-19 08:33N 34°37' E 135°17'8 7.0
2017-Feb-19 07:28N 34°37' E 135°26'0 0.0
2017-Feb-19 06:28N 34°37' E 135°26'0 0.0
2017-Feb-19 05:28N 34°37' E 135°26'0 0.0
2017-Feb-19 04:28N 34°37' E 135°26'0 0.0
2017-Feb-19 03:22N 34°37' E 135°26'0 0.0
2017-Feb-19 02:28N 34°37' E 135°26'0 0.0
2017-Feb-19 01:28N 34°37' E 135°26'0 0.0
2017-Feb-19 00:28N 34°37' E 135°26'0 0.0
2017-Feb-18 23:28N 34°37' E 135°26'0 0.0
2017-Feb-18 22:28N 34°37' E 135°26'0 0.0
2017-Feb-18 21:28N 34°37' E 135°26'0 0.0
2017-Feb-18 20:33N 34°37' E 135°26'1111.4
2017-Feb-18 19:33N 34°35' E 135°12'1918.8
2017-Feb-18 18:33N 34°33' E 134°50'10818.1
2017-Feb-18 12:33N 33°60' E 132°45'2221.7
2017-Feb-18 11:33N 33°46' E 132°24'17 0.9
2017-Feb-17 17:33N 33°46' E 132°04'2121.5
2017-Feb-17 16:33N 33°52' E 132°29'13218.8
2017-Feb-17 09:33N 34°37' E 134°58'2019.8
2017-Feb-17 08:33N 34°38' E 135°22'3 2.9
2017-Feb-17 07:31N 34°37' E 135°26'0 0.0
2017-Feb-17 06:31N 34°37' E 135°26'0 0.0
2017-Feb-17 05:31N 34°37' E 135°26'0 0.0
2017-Feb-17 04:31N 34°37' E 135°26'0 0.0
2017-Feb-17 03:31N 34°37' E 135°26'0 0.0
2017-Feb-17 02:31N 34°37' E 135°26'0 0.0
2017-Feb-17 01:25N 34°37' E 135°26'0 0.0
2017-Feb-17 00:31N 34°37' E 135°26'0 0.0
2017-Feb-16 23:31N 34°37' E 135°26'0 0.0
2017-Feb-16 22:25N 34°37' E 135°26'0 0.0
2017-Feb-16 21:31N 34°37' E 135°26'0 0.0
2017-Feb-16 20:31N 34°37' E 135°26'1010.2
2017-Feb-16 19:33N 34°35' E 135°14'1616.1
2017-Feb-16 18:33N 34°35' E 134°55'11419.0
2017-Feb-16 12:34N 33°58' E 132°44'2322.6
2017-Feb-16 11:33N 33°45' E 132°22'6720.7
2017-Feb-16 08:19N 33°53' E 131°01'2 1.7
2017-Feb-16 07:05N 33°52' E 130°59'0 0.0
2017-Feb-16 06:32N 33°52' E 130°59'0 0.0
2017-Feb-16 05:32N 33°52' E 130°59'52 4.3
2017-Feb-15 17:26N 33°45' E 132°01'1922.0
2017-Feb-15 16:33N 33°51' E 132°23'2120.9
2017-Feb-15 15:33N 34°01' E 132°45'11218.7
2017-Feb-15 09:33N 34°36' E 134°54'2019.8
2017-Feb-15 08:33N 34°37' E 135°18'6 5.4
2017-Feb-15 07:23N 34°37' E 135°26'0 0.0
2017-Feb-15 06:29N 34°37' E 135°26'0 0.0
2017-Feb-15 05:29N 34°37' E 135°26'0 0.0
2017-Feb-15 04:29N 34°37' E 135°26'0 0.0
2017-Feb-15 03:29N 34°37' E 135°26'0 0.0
2017-Feb-15 02:29N 34°37' E 135°26'3 2.7
2017-Feb-15 01:33N 34°38' E 135°23'1616.2
2017-Feb-15 00:33N 34°36' E 135°03'12718.2
2017-Feb-14 17:33N 33°54' E 132°38'2221.9
2017-Feb-14 16:33N 33°43' E 132°15'9 0.4
2017-Feb-13 17:15N 33°42' E 132°04'1419.9
2017-Feb-13 16:33N 33°45' E 132°20'2020.3
2017-Feb-13 15:33N 33°56' E 132°41'11619.2
2017-Feb-13 09:30N 34°35' E 134°53'  

Dump ship's entire track history